sensor_id;sensor_type;location;lat;lon;timestamp;pressure;altitude;pressure_sealevel;temperature;humidity
54592;BME280;40488;48.558;18.150;2024-01-25T00:00:27;99949.53;;;6.41;80.93
54592;BME280;40488;48.558;18.150;2024-01-25T00:02:56;99948.88;;;6.50;80.25
54592;BME280;40488;48.558;18.150;2024-01-25T00:05:25;99949.69;;;6.50;80.35
54592;BME280;40488;48.558;18.150;2024-01-25T00:07:54;99950.66;;;6.55;79.94
54592;BME280;40488;48.558;18.150;2024-01-25T00:10:23;99946.41;;;6.54;79.77
54592;BME280;40488;48.558;18.150;2024-01-25T00:12:52;99939.69;;;6.56;79.66
54592;BME280;40488;48.558;18.150;2024-01-25T00:15:23;99941.41;;;6.57;79.23
54592;BME280;40488;48.558;18.150;2024-01-25T00:17:51;99934.69;;;6.59;79.33
54592;BME280;40488;48.558;18.150;2024-01-25T00:20:21;99944.06;;;6.63;79.26
54592;BME280;40488;48.558;18.150;2024-01-25T00:22:50;99930.66;;;6.69;78.53
54592;BME280;40488;48.558;18.150;2024-01-25T00:25:18;99934.84;;;6.68;78.89
54592;BME280;40488;48.558;18.150;2024-01-25T00:27:48;99929.84;;;6.71;77.98
54592;BME280;40488;48.558;18.150;2024-01-25T00:30:16;99941.75;;;6.75;78.31
54592;BME280;40488;48.558;18.150;2024-01-25T00:32:48;99941.69;;;6.72;77.84
54592;BME280;40488;48.558;18.150;2024-01-25T00:35:18;99923.88;;;6.69;78.43
54592;BME280;40488;48.558;18.150;2024-01-25T00:37:48;99935.66;;;6.66;77.92
54592;BME280;40488;48.558;18.150;2024-01-25T00:40:17;99927.25;;;6.70;77.92
54592;BME280;40488;48.558;18.150;2024-01-25T00:42:46;99921.38;;;6.72;77.81
54592;BME280;40488;48.558;18.150;2024-01-25T00:45:21;99921.38;;;6.72;78.02
54592;BME280;40488;48.558;18.150;2024-01-25T00:47:51;99913.06;;;6.80;77.77
54592;BME280;40488;48.558;18.150;2024-01-25T00:50:21;99858.34;;;6.44;77.21
54592;BME280;40488;48.558;18.150;2024-01-25T00:52:53;99918.13;;;6.80;76.86
54592;BME280;40488;48.558;18.150;2024-01-25T00:55:22;99919.84;;;6.81;77.83
54592;BME280;40488;48.558;18.150;2024-01-25T00:57:52;99910.53;;;6.80;77.22
54592;BME280;40488;48.558;18.150;2024-01-25T01:00:22;99913.94;;;6.82;76.74
54592;BME280;40488;48.558;18.150;2024-01-25T01:02:54;99915.66;;;6.83;77.03
54592;BME280;40488;48.558;18.150;2024-01-25T01:05:27;99918.97;;;6.79;76.30
54592;BME280;40488;48.558;18.150;2024-01-25T01:07:56;99901.25;;;6.82;76.44
54592;BME280;40488;48.558;18.150;2024-01-25T01:10:25;99912.41;;;6.88;75.77
54592;BME280;40488;48.558;18.150;2024-01-25T01:12:54;99903.06;;;6.89;76.52
54592;BME280;40488;48.558;18.150;2024-01-25T01:15:23;99912.34;;;6.87;75.92
54592;BME280;40488;48.558;18.150;2024-01-25T01:17:54;99915.81;;;6.90;75.25
54592;BME280;40488;48.558;18.150;2024-01-25T01:20:23;99903.13;;;6.92;75.86
54592;BME280;40488;48.558;18.150;2024-01-25T01:22:52;99916.66;;;6.91;75.10
54592;BME280;40488;48.558;18.150;2024-01-25T01:25:21;99908.13;;;6.86;75.88
54592;BME280;40488;48.558;18.150;2024-01-25T01:27:50;99914.06;;;6.88;75.28
54592;BME280;40488;48.558;18.150;2024-01-25T01:30:19;99911.44;;;6.83;74.95
54592;BME280;40488;48.558;18.150;2024-01-25T01:32:48;99908.00;;;6.80;75.14
54592;BME280;40488;48.558;18.150;2024-01-25T01:35:19;99905.31;;;6.72;75.11
54592;BME280;40488;48.558;18.150;2024-01-25T01:37:48;99895.94;;;6.66;75.07
54592;BME280;40488;48.558;18.150;2024-01-25T01:40:17;99897.69;;;6.70;75.92
54592;BME280;40488;48.558;18.150;2024-01-25T01:42:47;99892.56;;;6.67;75.23
54592;BME280;40488;48.558;18.150;2024-01-25T01:45:17;99884.00;;;6.62;74.93
54592;BME280;40488;48.558;18.150;2024-01-25T01:47:46;99898.56;;;6.72;75.05
54592;BME280;40488;48.558;18.150;2024-01-25T01:50:15;99891.03;;;6.75;75.08
54592;BME280;40488;48.558;18.150;2024-01-25T01:52:46;99891.09;;;6.79;74.72
54592;BME280;40488;48.558;18.150;2024-01-25T01:55:16;99874.25;;;6.84;75.26
54592;BME280;40488;48.558;18.150;2024-01-25T01:57:46;99882.84;;;6.92;74.70
54592;BME280;40488;48.558;18.150;2024-01-25T02:00:16;99878.69;;;6.97;74.42
54592;BME280;40488;48.558;18.150;2024-01-25T02:02:45;99872.84;;;7.01;73.72
54592;BME280;40488;48.558;18.150;2024-01-25T02:05:14;99864.47;;;7.05;73.27
54592;BME280;40488;48.558;18.150;2024-01-25T02:07:43;99868.63;;;7.00;73.05
54592;BME280;40488;48.558;18.150;2024-01-25T02:10:14;99866.16;;;7.06;72.67
54592;BME280;40488;48.558;18.150;2024-01-25T02:12:43;99862.75;;;7.04;72.71
54592;BME280;40488;48.558;18.150;2024-01-25T02:15:12;99880.50;;;7.04;73.28
54592;BME280;40488;48.558;18.150;2024-01-25T02:17:41;99867.88;;;7.07;73.50
54592;BME280;40488;48.558;18.150;2024-01-25T02:20:11;99861.13;;;7.09;72.84
54592;BME280;40488;48.558;18.150;2024-01-25T02:22:41;99871.22;;;7.06;72.54
54592;BME280;40488;48.558;18.150;2024-01-25T02:25:10;99873.69;;;7.01;73.19
54592;BME280;40488;48.558;18.150;2024-01-25T02:27:39;99867.75;;;6.98;72.79
54592;BME280;40488;48.558;18.150;2024-01-25T02:30:09;99871.09;;;6.97;73.38
54592;BME280;40488;48.558;18.150;2024-01-25T02:32:38;99861.88;;;7.03;73.50
54592;BME280;40488;48.558;18.150;2024-01-25T02:35:07;99857.66;;;7.04;73.23
54592;BME280;40488;48.558;18.150;2024-01-25T02:37:36;99861.06;;;7.03;73.13
54592;BME280;40488;48.558;18.150;2024-01-25T02:40:07;99863.56;;;7.01;73.71
54592;BME280;40488;48.558;18.150;2024-01-25T02:42:36;99846.66;;;7.02;73.15
54592;BME280;40488;48.558;18.150;2024-01-25T02:45:07;99852.59;;;7.04;73.16
54592;BME280;40488;48.558;18.150;2024-01-25T02:47:36;99858.47;;;7.01;73.32
54592;BME280;40488;48.558;18.150;2024-01-25T02:50:06;99867.75;;;6.98;73.41
54592;BME280;40488;48.558;18.150;2024-01-25T02:52:35;99871.94;;;6.97;73.17
54592;BME280;40488;48.558;18.150;2024-01-25T02:55:05;99870.34;;;7.04;73.63
54592;BME280;40488;48.558;18.150;2024-01-25T02:57:34;99871.22;;;7.06;72.74
54592;BME280;40488;48.558;18.150;2024-01-25T03:00:05;99873.81;;;7.09;72.31
54592;BME280;40488;48.558;18.150;2024-01-25T03:02:34;99866.16;;;7.06;73.25
54592;BME280;40488;48.558;18.150;2024-01-25T03:05:03;99866.22;;;7.09;72.84
54592;BME280;40488;48.558;18.150;2024-01-25T03:07:32;99873.00;;;7.10;72.42
54592;BME280;40488;48.558;18.150;2024-01-25T03:10:01;99874.63;;;7.05;73.00
54592;BME280;40488;48.558;18.150;2024-01-25T03:12:31;99871.22;;;7.03;73.12
54592;BME280;40488;48.558;18.150;2024-01-25T03:15:00;99872.91;;;7.04;72.66
54592;BME280;40488;48.558;18.150;2024-01-25T03:17:32;99877.16;;;7.06;72.54
54592;BME280;40488;48.558;18.150;2024-01-25T03:20:01;99873.78;;;7.06;71.98
54592;BME280;40488;48.558;18.150;2024-01-25T03:22:30;99885.63;;;7.05;73.10
54592;BME280;40488;48.558;18.150;2024-01-25T03:24:59;99881.34;;;7.03;72.66
54592;BME280;40488;48.558;18.150;2024-01-25T03:27:28;99872.81;;;6.98;72.67
54592;BME280;40488;48.558;18.150;2024-01-25T03:29:58;99877.91;;;7.01;72.96
54592;BME280;40488;48.558;18.150;2024-01-25T03:32:27;99862.75;;;7.04;72.75
54592;BME280;40488;48.558;18.150;2024-01-25T03:34:59;99872.94;;;7.07;72.99
54592;BME280;40488;48.558;18.150;2024-01-25T03:37:28;99875.47;;;7.05;72.41
54592;BME280;40488;48.558;18.150;2024-01-25T03:39:57;99879.63;;;7.02;72.37
54592;BME280;40488;48.558;18.150;2024-01-25T03:42:26;99875.38;;;7.01;72.11
54592;BME280;40488;48.558;18.150;2024-01-25T03:44:54;99871.94;;;6.97;72.26
54592;BME280;40488;48.558;18.150;2024-01-25T03:47:25;99871.94;;;6.97;72.44
54592;BME280;40488;48.558;18.150;2024-01-25T03:49:54;99874.47;;;6.96;72.37
54592;BME280;40488;48.558;18.150;2024-01-25T03:52:23;99877.81;;;6.95;72.02
54592;BME280;40488;48.558;18.150;2024-01-25T03:54:52;99887.09;;;6.93;71.60
54592;BME280;40488;48.558;18.150;2024-01-25T03:57:21;99889.63;;;6.93;71.84
54592;BME280;40488;48.558;18.150;2024-01-25T03:59:50;99882.91;;;6.95;71.90
54592;BME280;40488;48.558;18.150;2024-01-25T04:02:19;99886.25;;;6.94;72.14
54592;BME280;40488;48.558;18.150;2024-01-25T04:04:50;99885.44;;;6.95;72.03
54592;BME280;40488;48.558;18.150;2024-01-25T04:07:19;99887.91;;;6.92;71.55
54592;BME280;40488;48.558;18.150;2024-01-25T04:09:48;99889.56;;;6.90;71.43
54592;BME280;40488;48.558;18.150;2024-01-25T04:12:18;99881.09;;;6.89;72.40
54592;BME280;40488;48.558;18.150;2024-01-25T04:14:47;99892.13;;;6.90;71.57
54592;BME280;40488;48.558;18.150;2024-01-25T04:17:17;99883.69;;;6.91;72.08
54592;BME280;40488;48.558;18.150;2024-01-25T04:19:46;99882.03;;;6.94;72.40
54592;BME280;40488;48.558;18.150;2024-01-25T04:22:17;99876.94;;;6.93;72.29
54592;BME280;40488;48.558;18.150;2024-01-25T04:24:46;99890.50;;;6.95;72.30
54592;BME280;40488;48.558;18.150;2024-01-25T04:27:17;99889.63;;;6.93;72.62
54592;BME280;40488;48.558;18.150;2024-01-25T04:29:46;99895.59;;;6.95;72.35
54592;BME280;40488;48.558;18.150;2024-01-25T04:32:15;99911.59;;;6.91;71.68
54592;BME280;40488;48.558;18.150;2024-01-25T04:34:44;99909.88;;;6.90;71.62
54592;BME280;40488;48.558;18.150;2024-01-25T04:37:17;99910.72;;;6.90;72.05
54592;BME280;40488;48.558;18.150;2024-01-25T04:39:46;99920.84;;;6.89;72.07
54592;BME280;40488;48.558;18.150;2024-01-25T04:42:17;99906.53;;;6.91;72.52
54592;BME280;40488;48.558;18.150;2024-01-25T04:44:45;99913.28;;;6.92;72.23
54592;BME280;40488;48.558;18.150;2024-01-25T04:47:14;99915.75;;;6.89;71.46
54592;BME280;40488;48.558;18.150;2024-01-25T04:49:43;99920.09;;;6.93;72.41
54592;BME280;40488;48.558;18.150;2024-01-25T04:52:12;99923.38;;;6.89;71.51
54592;BME280;40488;48.558;18.150;2024-01-25T04:54:42;99922.47;;;6.85;72.31
54592;BME280;40488;48.558;18.150;2024-01-25T04:57:11;99918.13;;;6.80;72.03
54592;BME280;40488;48.558;18.150;2024-01-25T04:59:40;99922.41;;;6.81;71.76
54592;BME280;40488;48.558;18.150;2024-01-25T05:02:09;99913.88;;;6.77;72.12
54592;BME280;40488;48.558;18.150;2024-01-25T05:04:38;99915.66;;;6.81;72.39
54592;BME280;40488;48.558;18.150;2024-01-25T05:07:12;99933.34;;;6.78;72.39
54592;BME280;40488;48.558;18.150;2024-01-25T05:09:43;99932.38;;;6.71;72.39
54592;BME280;40488;48.558;18.150;2024-01-25T05:12:12;99941.69;;;6.72;72.92
54592;BME280;40488;48.558;18.150;2024-01-25T05:14:41;99940.88;;;6.73;72.64
54592;BME280;40488;48.558;18.150;2024-01-25T05:17:10;99940.03;;;6.74;72.88
54592;BME280;40488;48.558;18.150;2024-01-25T05:19:38;99943.56;;;6.83;72.62
54592;BME280;40488;48.558;18.150;2024-01-25T05:22:07;99940.22;;;6.84;72.39
54592;BME280;40488;48.558;18.150;2024-01-25T05:24:36;99945.31;;;6.87;72.41
54592;BME280;40488;48.558;18.150;2024-01-25T05:27:07;99947.84;;;6.85;72.52
54592;BME280;40488;48.558;18.150;2024-01-25T05:29:35;99944.44;;;6.83;71.99
54592;BME280;40488;48.558;18.150;2024-01-25T05:32:04;99952.00;;;6.82;72.32
54592;BME280;40488;48.558;18.150;2024-01-25T05:34:33;99951.97;;;6.79;72.56
54592;BME280;40488;48.558;18.150;2024-01-25T05:37:03;99957.03;;;6.79;73.01
54592;BME280;40488;48.558;18.150;2024-01-25T05:39:32;99955.06;;;6.65;72.66
54592;BME280;40488;48.558;18.150;2024-01-25T05:42:01;99958.38;;;6.61;73.07
54592;BME280;40488;48.558;18.150;2024-01-25T05:44:31;99955.00;;;6.61;72.97
54592;BME280;40488;48.558;18.150;2024-01-25T05:47:00;99958.31;;;6.58;72.77
54592;BME280;40488;48.558;18.150;2024-01-25T05:49:29;99955.63;;;6.51;73.68
54592;BME280;40488;48.558;18.150;2024-01-25T05:51:58;99965.66;;;6.45;73.88
54592;BME280;40488;48.558;18.150;2024-01-25T05:54:27;99968.16;;;6.43;73.69
54592;BME280;40488;48.558;18.150;2024-01-25T05:56:56;99961.50;;;6.48;74.17
54592;BME280;40488;48.558;18.150;2024-01-25T05:59:25;99959.81;;;6.47;74.05
54592;BME280;40488;48.558;18.150;2024-01-25T06:01:55;99953.72;;;6.39;74.09
54592;BME280;40488;48.558;18.150;2024-01-25T06:04:24;99956.94;;;6.32;73.88
54592;BME280;40488;48.558;18.150;2024-01-25T06:06:53;99956.19;;;6.36;74.03
54592;BME280;40488;48.558;18.150;2024-01-25T06:09:23;99956.13;;;6.33;74.49
54592;BME280;40488;48.558;18.150;2024-01-25T06:11:53;99949.34;;;6.32;74.54
54592;BME280;40488;48.558;18.150;2024-01-25T06:14:22;99945.06;;;6.30;74.60
54592;BME280;40488;48.558;18.150;2024-01-25T06:16:51;99945.13;;;6.33;74.16
54592;BME280;40488;48.558;18.150;2024-01-25T06:19:21;99946.09;;;6.39;74.25
54592;BME280;40488;48.558;18.150;2024-01-25T06:21:50;99946.75;;;6.29;74.03
54592;BME280;40488;48.558;18.150;2024-01-25T06:24:19;99942.25;;;6.16;74.40
54592;BME280;40488;48.558;18.150;2024-01-25T06:26:47;99914.88;;;6.00;74.17
54592;BME280;40488;48.558;18.150;2024-01-25T06:29:17;99939.66;;;6.15;74.86
54592;BME280;40488;48.558;18.150;2024-01-25T06:31:45;99916.91;;;6.16;74.89
54592;BME280;40488;48.558;18.150;2024-01-25T06:34:14;99935.66;;;6.24;74.62
54592;BME280;40488;48.558;18.150;2024-01-25T06:36:45;99933.97;;;6.23;74.38
54592;BME280;40488;48.558;18.150;2024-01-25T06:39:14;99932.91;;;6.14;74.54
54592;BME280;40488;48.558;18.150;2024-01-25T06:41:42;99933.78;;;6.14;74.56
54592;BME280;40488;48.558;18.150;2024-01-25T06:44:11;99934.66;;;6.16;74.99
54592;BME280;40488;48.558;18.150;2024-01-25T06:46:40;99929.59;;;6.18;74.54
54592;BME280;40488;48.558;18.150;2024-01-25T06:49:09;99923.63;;;6.14;74.50
54592;BME280;40488;48.558;18.150;2024-01-25T06:51:38;99915.09;;;6.11;74.62
54592;BME280;40488;48.558;18.150;2024-01-25T06:54:08;99930.53;;;6.21;74.01
54592;BME280;40488;48.558;18.150;2024-01-25T06:56:37;99939.91;;;6.25;74.11
54592;BME280;40488;48.558;18.150;2024-01-25T06:59:06;99941.66;;;6.29;74.21
54592;BME280;40488;48.558;18.150;2024-01-25T07:01:35;99953.53;;;6.30;74.00
54592;BME280;40488;48.558;18.150;2024-01-25T07:04:05;99937.63;;;6.37;73.77
54592;BME280;40488;48.558;18.150;2024-01-25T07:06:34;99934.38;;;6.44;73.82
54592;BME280;40488;48.558;18.150;2024-01-25T07:09:03;99943.91;;;6.56;73.49
54592;BME280;40488;48.558;18.150;2024-01-25T07:11:34;99946.66;;;6.66;73.67
54592;BME280;40488;48.558;18.150;2024-01-25T07:14:03;99946.88;;;6.79;73.10
54592;BME280;40488;48.558;18.150;2024-01-25T07:16:32;99947.03;;;6.88;72.26
54592;BME280;40488;48.558;18.150;2024-01-25T07:19:01;99956.47;;;6.93;72.59
54592;BME280;40488;48.558;18.150;2024-01-25T07:21:30;99938.56;;;6.86;71.78
54592;BME280;40488;48.558;18.150;2024-01-25T07:24:03;99945.28;;;6.84;71.94
54592;BME280;40488;48.558;18.150;2024-01-25T07:26:33;99947.84;;;6.87;72.31
54592;BME280;40488;48.558;18.150;2024-01-25T07:29:04;99947.03;;;6.88;72.13
54592;BME280;40488;48.558;18.150;2024-01-25T07:31:32;99957.25;;;6.91;71.34
54592;BME280;40488;48.558;18.150;2024-01-25T07:34:01;99952.22;;;6.94;72.30
54592;BME280;40488;48.558;18.150;2024-01-25T07:36:31;99952.19;;;6.91;71.74
54592;BME280;40488;48.558;18.150;2024-01-25T07:39:00;99952.13;;;6.88;71.76
54592;BME280;40488;48.558;18.150;2024-01-25T07:41:30;99948.63;;;6.83;71.87
54592;BME280;40488;48.558;18.150;2024-01-25T07:44:00;99958.72;;;6.80;72.26
54592;BME280;40488;48.558;18.150;2024-01-25T07:46:29;99957.81;;;6.76;72.23
54592;BME280;40488;48.558;18.150;2024-01-25T07:48:58;99938.50;;;6.83;72.11
54592;BME280;40488;48.558;18.150;2024-01-25T07:51:27;99941.19;;;6.92;71.74
54592;BME280;40488;48.558;18.150;2024-01-25T07:53:56;99932.84;;;6.97;71.28
54592;BME280;40488;48.558;18.150;2024-01-25T07:56:25;99937.19;;;7.03;71.21
54592;BME280;40488;48.558;18.150;2024-01-25T07:58:54;99938.81;;;7.01;70.85
54592;BME280;40488;48.558;18.150;2024-01-25T08:01:24;99939.00;;;7.10;69.83
54592;BME280;40488;48.558;18.150;2024-01-25T08:03:53;99939.00;;;7.10;69.62
54592;BME280;40488;48.558;18.150;2024-01-25T08:06:23;99941.59;;;7.14;69.37
54592;BME280;40488;48.558;18.150;2024-01-25T08:08:52;99938.28;;;7.18;69.38
54592;BME280;40488;48.558;18.150;2024-01-25T08:11:21;99949.28;;;7.19;69.65
54592;BME280;40488;48.558;18.150;2024-01-25T08:13:50;99944.09;;;7.13;69.83
54592;BME280;40488;48.558;18.150;2024-01-25T08:16:19;99955.91;;;7.09;69.77
54592;BME280;40488;48.558;18.150;2024-01-25T08:18:49;99945.75;;;7.11;69.67
54592;BME280;40488;48.558;18.150;2024-01-25T08:21:18;99959.38;;;7.16;69.83
54592;BME280;40488;48.558;18.150;2024-01-25T08:23:47;99949.38;;;7.25;69.87
54592;BME280;40488;48.558;18.150;2024-01-25T08:26:16;99962.97;;;7.27;69.18
54592;BME280;40488;48.558;18.150;2024-01-25T08:28:46;99956.97;;;7.22;69.07
54592;BME280;40488;48.558;18.150;2024-01-25T08:31:15;99947.53;;;7.15;70.03
54592;BME280;40488;48.558;18.150;2024-01-25T08:33:43;99934.06;;;7.17;69.43
54592;BME280;40488;48.558;18.150;2024-01-25T08:36:18;99939.16;;;7.19;70.14
54592;BME280;40488;48.558;18.150;2024-01-25T08:38:47;99932.59;;;7.31;69.31
54592;BME280;40488;48.558;18.150;2024-01-25T08:41:16;99906.22;;;7.25;69.24
54592;BME280;40488;48.558;18.150;2024-01-25T08:43:45;99933.53;;;7.38;69.21
54592;BME280;40488;48.558;18.150;2024-01-25T08:46:14;99942.09;;;7.43;69.99
54592;BME280;40488;48.558;18.150;2024-01-25T08:48:43;99932.81;;;7.45;69.79
54592;BME280;40488;48.558;18.150;2024-01-25T08:51:12;99942.16;;;7.48;69.57
54592;BME280;40488;48.558;18.150;2024-01-25T08:53:42;99934.53;;;7.49;69.90
54592;BME280;40488;48.558;18.150;2024-01-25T08:56:11;99917.56;;;7.45;69.92
54592;BME280;40488;48.558;18.150;2024-01-25T08:58:40;99938.94;;;7.58;69.50
54592;BME280;40488;48.558;18.150;2024-01-25T09:01:08;99942.41;;;7.64;69.91
54592;BME280;40488;48.558;18.150;2024-01-25T09:03:38;99954.44;;;7.76;69.56
54592;BME280;40488;48.558;18.150;2024-01-25T09:06:07;99958.84;;;7.87;68.87
54592;BME280;40488;48.558;18.150;2024-01-25T09:08:36;99958.09;;;7.94;68.11
54592;BME280;40488;48.558;18.150;2024-01-25T09:11:07;99962.22;;;7.86;68.46
54592;BME280;40488;48.558;18.150;2024-01-25T09:13:36;99973.31;;;7.93;67.49
54592;BME280;40488;48.558;18.150;2024-01-25T09:16:18;99982.09;;;8.13;68.21
54592;BME280;40488;48.558;18.150;2024-01-25T09:18:47;99991.78;;;8.37;66.76
54592;BME280;40488;48.558;18.150;2024-01-25T09:21:16;99991.78;;;8.37;67.46
54592;BME280;40488;48.558;18.150;2024-01-25T09:23:44;100000.38;;;8.48;67.07
54592;BME280;40488;48.558;18.150;2024-01-25T09:26:15;99999.81;;;8.70;66.49
54592;BME280;40488;48.558;18.150;2024-01-25T09:28:44;99999.22;;;8.92;65.89
54592;BME280;40488;48.558;18.150;2024-01-25T09:31:12;100013.91;;;9.17;65.01
54592;BME280;40488;48.558;18.150;2024-01-25T09:33:41;100011.56;;;9.38;64.87
54592;BME280;40488;48.558;18.150;2024-01-25T09:36:11;100013.41;;;9.52;64.90
54592;BME280;40488;48.558;18.150;2024-01-25T09:38:40;100013.56;;;9.73;64.09
54592;BME280;40488;48.558;18.150;2024-01-25T09:41:09;99966.66;;;9.53;64.05
54592;BME280;40488;48.558;18.150;2024-01-25T09:43:40;100016.34;;;10.04;63.18
54592;BME280;40488;48.558;18.150;2024-01-25T09:46:13;100019.03;;;10.18;62.32
54592;BME280;40488;48.558;18.150;2024-01-25T09:48:44;100027.59;;;10.29;61.69
54592;BME280;40488;48.558;18.150;2024-01-25T09:51:16;100012.28;;;10.26;61.39
54592;BME280;40488;48.558;18.150;2024-01-25T09:53:48;100019.88;;;10.20;60.06
54592;BME280;40488;48.558;18.150;2024-01-25T09:56:20;100018.84;;;9.97;59.95
54592;BME280;40488;48.558;18.150;2024-01-25T09:58:52;100018.72;;;9.82;60.33
54592;BME280;40488;48.558;18.150;2024-01-25T10:01:21;100021.22;;;9.74;60.18
54592;BME280;40488;48.558;18.150;2024-01-25T10:03:50;100014.31;;;9.61;60.36
54592;BME280;40488;48.558;18.150;2024-01-25T10:06:19;100037.25;;;9.60;60.38
54592;BME280;40488;48.558;18.150;2024-01-25T10:08:48;100023.59;;;9.52;61.08
54592;BME280;40488;48.558;18.150;2024-01-25T10:11:17;100036.31;;;9.52;60.91
54592;BME280;40488;48.558;18.150;2024-01-25T10:13:47;100025.22;;;9.47;61.35
54592;BME280;40488;48.558;18.150;2024-01-25T10:16:20;100031.19;;;9.47;61.02
54592;BME280;40488;48.558;18.150;2024-01-25T10:18:49;100020.97;;;9.42;61.02
54592;BME280;40488;48.558;18.150;2024-01-25T10:21:20;100017.56;;;9.42;61.01
54592;BME280;40488;48.558;18.150;2024-01-25T10:23:49;100025.97;;;9.36;60.37
54592;BME280;40488;48.558;18.150;2024-01-25T10:26:19;100032.75;;;9.33;60.43
54592;BME280;40488;48.558;18.150;2024-01-25T10:28:52;100017.50;;;9.37;60.33
54592;BME280;40488;48.558;18.150;2024-01-25T10:31:30;100023.50;;;9.45;59.67
54592;BME280;40488;48.558;18.150;2024-01-25T10:34:00;100026.84;;;9.38;59.27
54592;BME280;40488;48.558;18.150;2024-01-25T10:36:29;100027.66;;;9.34;59.35
54592;BME280;40488;48.558;18.150;2024-01-25T10:39:01;100019.13;;;9.31;59.08
54592;BME280;40488;48.558;18.150;2024-01-25T10:41:34;100019.06;;;9.25;59.60
54592;BME280;40488;48.558;18.150;2024-01-25T10:44:04;100016.41;;;9.11;58.88
54592;BME280;40488;48.558;18.150;2024-01-25T10:46:36;100023.19;;;9.12;59.59
54592;BME280;40488;48.558;18.150;2024-01-25T10:49:07;100013.84;;;9.11;59.21
54592;BME280;40488;48.558;18.150;2024-01-25T10:51:37;100009.59;;;9.09;59.54
54592;BME280;40488;48.558;18.150;2024-01-25T10:54:07;100014.63;;;9.04;59.95
54592;BME280;40488;48.558;18.150;2024-01-25T10:56:36;100018.00;;;9.03;60.03
54592;BME280;40488;48.558;18.150;2024-01-25T10:59:05;100001.00;;;9.02;59.39
54592;BME280;40488;48.558;18.150;2024-01-25T11:01:37;100007.78;;;9.00;59.60
54592;BME280;40488;48.558;18.150;2024-01-25T11:04:12;100016.22;;;8.96;59.81
54592;BME280;40488;48.558;18.150;2024-01-25T11:06:42;100010.22;;;8.91;60.24
54592;BME280;40488;48.558;18.150;2024-01-25T11:09:17;100016.13;;;8.87;59.92
54592;BME280;40488;48.558;18.150;2024-01-25T11:11:48;100015.28;;;8.85;60.11
54592;BME280;40488;48.558;18.150;2024-01-25T11:14:19;99995.53;;;8.69;59.76
54592;BME280;40488;48.558;18.150;2024-01-25T11:16:49;100015.19;;;8.77;59.71
54592;BME280;40488;48.558;18.150;2024-01-25T11:19:21;100004.94;;;8.74;59.40
54592;BME280;40488;48.558;18.150;2024-01-25T11:21:51;100010.00;;;8.71;60.00
54592;BME280;40488;48.558;18.150;2024-01-25T11:24:22;100008.31;;;8.70;60.12
54592;BME280;40488;48.558;18.150;2024-01-25T11:26:54;100000.63;;;8.69;59.66
54592;BME280;40488;48.558;18.150;2024-01-25T11:29:23;100009.13;;;8.68;59.72
54592;BME280;40488;48.558;18.150;2024-01-25T11:31:54;100008.25;;;8.69;59.86
54592;BME280;40488;48.558;18.150;2024-01-25T11:34:23;100010.75;;;8.63;59.88
54592;BME280;40488;48.558;18.150;2024-01-25T11:36:52;100007.34;;;8.61;60.24
54592;BME280;40488;48.558;18.150;2024-01-25T11:39:21;100010.72;;;8.60;60.36
54592;BME280;40488;48.558;18.150;2024-01-25T11:41:51;100015.75;;;8.57;60.14
54592;BME280;40488;48.558;18.150;2024-01-25T11:44:20;99993.66;;;8.53;59.59
54592;BME280;40488;48.558;18.150;2024-01-25T11:46:55;99997.13;;;8.58;60.06
54592;BME280;40488;48.558;18.150;2024-01-25T11:49:24;99984.25;;;8.47;59.72
54592;BME280;40488;48.558;18.150;2024-01-25T11:51:53;100008.09;;;8.55;59.41
54592;BME280;40488;48.558;18.150;2024-01-25T11:54:22;99985.06;;;8.45;59.60
54592;BME280;40488;48.558;18.150;2024-01-25T11:56:51;100008.91;;;8.53;58.59
54592;BME280;40488;48.558;18.150;2024-01-25T11:59:20;100012.34;;;8.55;59.01
54592;BME280;40488;48.558;18.150;2024-01-25T12:01:49;100010.66;;;8.54;58.41
54592;BME280;40488;48.558;18.150;2024-01-25T12:04:19;100018.25;;;8.52;58.61
54592;BME280;40488;48.558;18.150;2024-01-25T12:06:51;100014.81;;;8.49;58.86
54592;BME280;40488;48.558;18.150;2024-01-25T12:09:20;100025.81;;;8.48;59.10
54592;BME280;40488;48.558;18.150;2024-01-25T12:11:49;100012.22;;;8.46;59.46
54592;BME280;40488;48.558;18.150;2024-01-25T12:14:18;100012.22;;;8.46;59.10
54592;BME280;40488;48.558;18.150;2024-01-25T12:16:47;100015.59;;;8.43;58.50
54592;BME280;40488;48.558;18.150;2024-01-25T12:19:16;100015.56;;;8.42;58.44
54592;BME280;40488;48.558;18.150;2024-01-25T12:21:47;100015.59;;;8.45;58.62
54592;BME280;40488;48.558;18.150;2024-01-25T12:24:16;100035.13;;;8.46;58.59
54592;BME280;40488;48.558;18.150;2024-01-25T12:26:47;100019.00;;;8.44;58.42
54592;BME280;40488;48.558;18.150;2024-01-25T12:29:16;100019.81;;;8.43;59.27
54592;BME280;40488;48.558;18.150;2024-01-25T12:31:45;100020.69;;;8.45;58.11
54592;BME280;40488;48.558;18.150;2024-01-25T12:34:14;100017.31;;;8.46;57.75
54592;BME280;40488;48.558;18.150;2024-01-25T12:36:44;100018.22;;;8.49;58.02
54592;BME280;40488;48.558;18.150;2024-01-25T12:39:14;100022.44;;;8.49;58.32
54592;BME280;40488;48.558;18.150;2024-01-25T12:41:47;100014.81;;;8.50;57.98
54592;BME280;40488;48.558;18.150;2024-01-25T12:44:18;100019.09;;;8.53;57.73
54592;BME280;40488;48.558;18.150;2024-01-25T12:46:48;100025.91;;;8.54;57.93
54592;BME280;40488;48.558;18.150;2024-01-25T12:49:18;99990.81;;;8.29;57.66
54592;BME280;40488;48.558;18.150;2024-01-25T12:51:51;100033.53;;;8.55;57.34
54592;BME280;40488;48.558;18.150;2024-01-25T12:54:23;100027.59;;;8.55;58.19
54592;BME280;40488;48.558;18.150;2024-01-25T12:56:52;99997.66;;;8.34;58.07
54592;BME280;40488;48.558;18.150;2024-01-25T12:59:21;100036.91;;;8.51;57.25
54592;BME280;40488;48.558;18.150;2024-01-25T13:01:50;100022.41;;;8.46;57.25
54592;BME280;40488;48.558;18.150;2024-01-25T13:04:19;100024.91;;;8.43;57.55
54592;BME280;40488;48.558;18.150;2024-01-25T13:06:53;100041.94;;;8.47;57.60
54592;BME280;40488;48.558;18.150;2024-01-25T13:09:24;100022.31;;;8.40;56.88